Time;durP1;ratioP1;P1;durP2;ratioP2;P2;SDS_P1;SDS_P2;PMS_P1;PMS_P2;Temp;Humidity;BMP_temperature;BMP_pressure;BME280_temperature;BME280_humidity;BME280_pressure;Samples;Min_cycle;Max_cycle;Signal;HPM_P1;HPM_P2
2023/01/06 00:00:17;;;;;;;;;;;18.00;86.30;;;;;;5105151;28;19911;-50
2023/01/06 00:02:45;;;;;;;;;;;18.00;88.80;;;;;;5112541;28;19907;-53
2023/01/06 00:05:13;;;;;;;;;;;18.20;89.10;;;;;;5112163;28;19908;-49
2023/01/06 00:07:38;;;;;;;;;;;18.30;89.10;;;;;;5093612;28;20333;-49
2023/01/06 00:10:04;;;;;;;;;;;18.40;88.80;;;;;;5100693;28;19947;-51
2023/01/06 00:12:30;;;;;;;;;;;18.40;88.70;;;;;;5080800;28;19911;-51
2023/01/06 00:14:55;;;;;;;;;;;18.50;88.60;;;;;;5093027;28;19912;-49
2023/01/06 00:17:21;;;;;;;;;;;18.50;88.80;;;;;;5096528;28;19916;-52
2023/01/06 00:19:46;;;;;;;;;;;18.50;88.70;;;;;;5098804;28;19970;-51
2023/01/06 00:22:12;;;;;;;;;;;18.40;88.80;;;;;;5094525;28;20003;-48
2023/01/06 00:24:37;;;;;;;;;;;18.40;89.00;;;;;;5098133;28;20267;-54
2023/01/06 00:27:03;;;;;;;;;;;18.40;89.10;;;;;;5093320;28;20002;-52
2023/01/06 00:29:29;;;;;;;;;;;18.30;89.10;;;;;;5083294;28;19911;-48
2023/01/06 00:31:54;;;;;;;;;;;18.30;89.30;;;;;;5112952;28;19908;-51
2023/01/06 00:34:20;;;;;;;;;;;18.30;89.70;;;;;;5112509;28;19915;-53
2023/01/06 00:36:45;;;;;;;;;;;18.20;89.80;;;;;;5113046;28;19920;-51
2023/01/06 00:39:12;;;;;;;;;;;18.20;90.00;;;;;;5112532;28;20023;-51
2023/01/06 00:44:21;;;;;;;;;;;18.20;90.10;;;;;;5112869;28;20285;-52
2023/01/06 00:46:47;;;;;;;;;;;18.20;90.10;;;;;;5113959;28;19908;-50
2023/01/06 00:49:12;;;;;;;;;;;18.10;90.20;;;;;;5114823;28;19961;-53
2023/01/06 00:51:39;;;;;;;;;;;18.10;90.10;;;;;;5115055;28;20060;-49
2023/01/06 00:54:08;;;;;;;;;;;18.10;90.10;;;;;;5114442;28;20326;-52
2023/01/06 00:56:37;;;;;;;;;;;18.10;90.20;;;;;;5114015;28;19974;-52
2023/01/06 00:59:03;;;;;;;;;;;18.10;90.20;;;;;;5114608;28;20378;-49
2023/01/06 01:01:28;;;;;;;;;;;18.10;90.20;;;;;;5114680;28;19939;-48
2023/01/06 01:03:54;;;;;;;;;;;18.20;90.20;;;;;;5114342;28;19996;-49
2023/01/06 01:06:19;;;;;;;;;;;18.30;90.10;;;;;;5096372;28;20267;-50
2023/01/06 01:08:44;;;;;;;;;;;18.40;89.90;;;;;;5114572;28;19907;-54
2023/01/06 01:12:08;;;;;;;;;;;18.50;89.60;;;;;;5114565;28;20358;-51
2023/01/06 01:13:56;;;;;;;;;;;18.60;89.30;;;;;;5114085;28;20358;-51
2023/01/06 01:16:22;;;;;;;;;;;18.60;89.10;;;;;;5114126;28;19914;-51
2023/01/06 01:18:47;;;;;;;;;;;18.60;89.10;;;;;;5114440;28;19911;-49
2023/01/06 01:21:13;;;;;;;;;;;18.60;89.70;;;;;;5096143;28;19912;-49
2023/01/06 01:23:38;;;;;;;;;;;18.50;89.30;;;;;;5114537;28;19915;-53
2023/01/06 01:26:04;;;;;;;;;;;18.50;89.50;;;;;;5114128;28;19908;-51
2023/01/06 01:28:29;;;;;;;;;;;18.50;90.00;;;;;;5114381;28;19943;-51
2023/01/06 01:31:01;;;;;;;;;;;18.50;89.70;;;;;;5114098;28;19908;-51
2023/01/06 01:33:28;;;;;;;;;;;18.40;89.60;;;;;;5114165;28;20388;-49
2023/01/06 01:35:53;;;;;;;;;;;18.30;89.70;;;;;;5095925;28;19927;-49
2023/01/06 01:38:18;;;;;;;;;;;18.30;90.00;;;;;;5113984;28;20278;-53
2023/01/06 01:40:48;;;;;;;;;;;18.30;90.10;;;;;;5114070;28;19998;-50
2023/01/06 01:43:14;;;;;;;;;;;18.20;90.10;;;;;;5114060;28;20366;-49
2023/01/06 01:45:40;;;;;;;;;;;18.20;90.10;;;;;;5114059;28;19915;-50
2023/01/06 01:48:10;;;;;;;;;;;18.20;90.20;;;;;;5114275;28;19912;-51
2023/01/06 01:50:41;;;;;;;;;;;18.10;90.20;;;;;;5114233;28;19947;-48
2023/01/06 01:53:19;;;;;;;;;;;18.10;90.30;;;;;;5113969;28;20273;-52
2023/01/06 01:55:44;;;;;;;;;;;18.10;90.30;;;;;;5113969;28;19922;-49
2023/01/06 01:58:14;;;;;;;;;;;18.10;90.30;;;;;;5114095;28;19912;-49
2023/01/06 02:00:42;;;;;;;;;;;18.20;90.30;;;;;;5113901;28;20010;-53
2023/01/06 02:03:08;;;;;;;;;;;18.20;90.30;;;;;;5113863;28;20375;-52
2023/01/06 02:05:36;;;;;;;;;;;18.30;90.20;;;;;;5114106;28;19961;-50
2023/01/06 02:08:04;;;;;;;;;;;18.40;90.10;;;;;;5097380;28;19912;-52
2023/01/06 02:10:29;;;;;;;;;;;18.50;89.90;;;;;;5099231;28;19908;-49
2023/01/06 02:12:56;;;;;;;;;;;18.60;89.60;;;;;;5117513;28;19915;-50
2023/01/06 02:15:26;;;;;;;;;;;18.70;89.40;;;;;;5118138;28;20385;-49
2023/01/06 02:18:04;;;;;;;;;;;18.70;89.40;;;;;;5099484;28;19963;-49
2023/01/06 02:20:32;;;;;;;;;;;18.60;89.40;;;;;;5118017;28;19951;-52
2023/01/06 02:22:58;;;;;;;;;;;18.60;89.40;;;;;;5117620;28;19986;-49
2023/01/06 02:25:23;;;;;;;;;;;18.50;89.40;;;;;;5117560;28;19943;-52
2023/01/06 02:28:07;;;;;;;;;;;18.50;89.50;;;;;;5117480;28;19908;-49
2023/01/06 02:30:38;;;;;;;;;;;18.50;89.70;;;;;;5117125;28;19908;-50
2023/01/06 02:33:04;;;;;;;;;;;18.50;89.80;;;;;;5117213;28;19907;-49
2023/01/06 02:35:29;;;;;;;;;;;18.40;90.00;;;;;;5117139;28;19919;-50
2023/01/06 02:38:05;;;;;;;;;;;18.30;90.00;;;;;;5116961;28;19912;-51
2023/01/06 02:40:49;;;;;;;;;;;18.30;90.10;;;;;;5116984;28;20169;-50
2023/01/06 02:43:20;;;;;;;;;;;18.30;90.10;;;;;;5116861;28;19908;-51
2023/01/06 02:45:46;;;;;;;;;;;18.30;90.20;;;;;;5117123;28;20012;-52
2023/01/06 02:48:16;;;;;;;;;;;18.20;90.30;;;;;;5098824;28;20365;-48
2023/01/06 02:50:53;;;;;;;;;;;18.20;90.30;;;;;;5117358;28;19996;-48
2023/01/06 02:53:20;;;;;;;;;;;18.20;90.30;;;;;;5116687;28;20393;-48
2023/01/06 02:55:47;;;;;;;;;;;18.20;90.30;;;;;;5116982;28;19907;-54
2023/01/06 02:58:31;;;;;;;;;;;18.20;90.40;;;;;;5116878;28;19912;-52
2023/01/06 03:01:01;;;;;;;;;;;18.10;90.40;;;;;;5116854;28;19912;-52
2023/01/06 03:03:28;;;;;;;;;;;18.10;90.40;;;;;;5116526;28;19908;-51
2023/01/06 03:06:01;;;;;;;;;;;18.10;90.40;;;;;;5116461;28;20259;-54
2023/01/06 03:08:28;;;;;;;;;;;18.10;90.40;;;;;;5116493;28;19908;-49
2023/01/06 03:10:54;;;;;;;;;;;18.10;90.40;;;;;;5116392;28;19908;-48
2023/01/06 03:13:20;;;;;;;;;;;18.30;90.40;;;;;;5116543;28;19918;-47
2023/01/06 03:15:45;;;;;;;;;;;18.50;90.30;;;;;;5116297;28;19995;-49
2023/01/06 03:18:11;;;;;;;;;;;18.70;89.60;;;;;;5116182;28;19916;-50
2023/01/06 03:20:36;;;;;;;;;;;18.90;89.00;;;;;;5115543;28;19919;-49
2023/01/06 03:23:02;;;;;;;;;;;19.00;88.60;;;;;;5098183;28;20337;-50
2023/01/06 03:25:27;;;;;;;;;;;19.00;88.50;;;;;;5116104;28;19908;-51
2023/01/06 03:27:53;;;;;;;;;;;19.00;88.50;;;;;;5116323;28;19908;-50
2023/01/06 03:30:19;;;;;;;;;;;18.90;88.70;;;;;;5116291;28;19915;-51
2023/01/06 03:32:44;;;;;;;;;;;18.90;88.90;;;;;;5116599;28;20312;-49
2023/01/06 03:35:12;;;;;;;;;;;18.90;89.10;;;;;;5115898;28;19920;-49
2023/01/06 03:38:04;;;;;;;;;;;18.80;89.30;;;;;;5115771;28;19918;-50
2023/01/06 03:40:39;;;;;;;;;;;18.70;89.40;;;;;;5115908;28;20346;-52
2023/01/06 03:43:10;;;;;;;;;;;18.60;89.50;;;;;;5115745;28;19994;-49
2023/01/06 03:45:51;;;;;;;;;;;18.60;90.00;;;;;;5116358;28;19908;-53
2023/01/06 03:48:35;;;;;;;;;;;18.50;90.00;;;;;;5115638;28;20266;-50
2023/01/06 03:51:21;;;;;;;;;;;18.50;90.40;;;;;;5115844;28;19977;-49
2023/01/06 03:53:52;;;;;;;;;;;18.40;90.20;;;;;;5073740;28;19960;-49
2023/01/06 03:56:20;;;;;;;;;;;18.30;83.90;;;;;;5115798;28;19915;-52
2023/01/06 03:58:48;;;;;;;;;;;18.20;85.90;;;;;;5115330;28;20381;-51
2023/01/06 04:01:14;;;;;;;;;;;18.20;89.60;;;;;;5097428;28;19918;-52
2023/01/06 04:03:42;;;;;;;;;;;18.20;90.00;;;;;;5115641;28;20002;-49
2023/01/06 04:06:08;;;;;;;;;;;18.20;90.20;;;;;;5115557;28;20244;-48
2023/01/06 04:08:33;;;;;;;;;;;18.20;90.10;;;;;;5115275;28;19915;-50
2023/01/06 04:10:59;;;;;;;;;;;18.20;90.30;;;;;;5115222;28;19915;-49
2023/01/06 04:13:24;;;;;;;;;;;18.20;90.60;;;;;;5115124;28;19912;-50
2023/01/06 04:15:49;;;;;;;;;;;18.20;90.30;;;;;;5097091;28;20374;-50
2023/01/06 04:18:15;;;;;;;;;;;18.40;90.20;;;;;;5115206;28;19912;-51
2023/01/06 04:20:40;;;;;;;;;;;18.50;90.00;;;;;;5097042;28;19969;-52
2023/01/06 04:23:06;;;;;;;;;;;18.60;89.70;;;;;;5096965;28;20243;-50
2023/01/06 04:25:31;;;;;;;;;;;18.70;89.60;;;;;;5115190;28;19919;-49
2023/01/06 04:27:57;;;;;;;;;;;18.70;89.40;;;;;;5115121;28;20266;-50
2023/01/06 04:30:22;;;;;;;;;;;18.70;89.80;;;;;;5114858;28;19912;-52
2023/01/06 04:32:48;;;;;;;;;;;18.70;89.70;;;;;;5114135;28;19914;-50
2023/01/06 04:35:13;;;;;;;;;;;18.70;89.80;;;;;;5114530;28;20298;-50
2023/01/06 04:37:39;;;;;;;;;;;18.60;89.80;;;;;;5114635;28;19919;-49
2023/01/06 04:40:06;;;;;;;;;;;18.50;89.80;;;;;;5114923;28;20019;-49
2023/01/06 04:43:02;;;;;;;;;;;18.50;90.00;;;;;;5114669;28;19916;-48
2023/01/06 04:45:17;;;;;;;;;;;18.50;90.00;;;;;;5114779;28;20377;-49
2023/01/06 04:47:42;;;;;;;;;;;18.40;90.00;;;;;;5114896;28;19908;-48
2023/01/06 04:50:08;;;;;;;;;;;18.40;90.10;;;;;;5114835;28;20278;-52
2023/01/06 04:52:34;;;;;;;;;;;18.40;90.10;;;;;;5114948;28;19908;-48
2023/01/06 04:54:59;;;;;;;;;;;18.30;90.10;;;;;;5096321;28;20016;-49
2023/01/06 04:57:25;;;;;;;;;;;18.30;90.20;;;;;;5114427;28;19914;-54
2023/01/06 04:59:50;;;;;;;;;;;18.30;90.20;;;;;;5114460;28;19959;-48
2023/01/06 05:02:16;;;;;;;;;;;18.30;90.30;;;;;;5114715;28;19915;-49
2023/01/06 05:04:41;;;;;;;;;;;18.20;90.30;;;;;;5114972;28;19998;-49
2023/01/06 05:07:06;;;;;;;;;;;18.20;90.30;;;;;;5114320;28;19908;-49
2023/01/06 05:09:32;;;;;;;;;;;18.20;90.30;;;;;;5114674;28;19915;-53
2023/01/06 05:11:57;;;;;;;;;;;18.20;90.30;;;;;;5096355;28;19908;-52
2023/01/06 05:14:23;;;;;;;;;;;18.20;90.40;;;;;;5114555;28;20349;-47
2023/01/06 05:16:48;;;;;;;;;;;18.20;90.40;;;;;;5114185;28;19908;-49
2023/01/06 05:19:14;;;;;;;;;;;18.30;90.60;;;;;;5114071;28;19947;-50
2023/01/06 05:21:39;;;;;;;;;;;18.30;90.30;;;;;;5114236;28;19912;-52
2023/01/06 05:24:05;;;;;;;;;;;18.40;90.20;;;;;;5114124;28;19915;-52
2023/01/06 05:26:30;;;;;;;;;;;18.50;90.30;;;;;;5114212;28;19961;-52
2023/01/06 05:28:56;;;;;;;;;;;18.60;89.90;;;;;;5114465;28;19908;-53
2023/01/06 05:31:21;;;;;;;;;;;18.60;89.90;;;;;;5114235;28;19912;-51
2023/01/06 05:33:47;;;;;;;;;;;18.60;89.90;;;;;;5114200;28;20350;-51
2023/01/06 05:36:14;;;;;;;;;;;18.60;90.00;;;;;;5114420;28;20354;-53
2023/01/06 05:38:40;;;;;;;;;;;18.60;90.00;;;;;;5113978;28;20369;-48
2023/01/06 05:41:05;;;;;;;;;;;18.50;90.10;;;;;;5114662;28;19915;-53
2023/01/06 05:43:32;;;;;;;;;;;18.50;90.10;;;;;;5098422;28;19912;-52
2023/01/06 05:45:59;;;;;;;;;;;18.50;90.20;;;;;;5118078;28;20316;-51
2023/01/06 05:48:25;;;;;;;;;;;18.40;90.20;;;;;;5118303;28;19911;-54
2023/01/06 05:50:51;;;;;;;;;;;18.40;90.30;;;;;;5117975;28;19915;-52
2023/01/06 05:53:16;;;;;;;;;;;18.40;90.30;;;;;;5118151;28;19907;-50
2023/01/06 05:55:42;;;;;;;;;;;18.40;90.30;;;;;;5118142;28;19915;-52
2023/01/06 05:58:07;;;;;;;;;;;18.30;90.30;;;;;;5117585;28;20354;-51
2023/01/06 06:00:33;;;;;;;;;;;18.30;90.40;;;;;;5117976;28;19911;-52
2023/01/06 06:02:58;;;;;;;;;;;18.30;90.40;;;;;;5117762;28;19915;-50
2023/01/06 06:05:24;;;;;;;;;;;18.20;90.40;;;;;;5117623;28;20285;-52
2023/01/06 06:07:53;;;;;;;;;;;18.30;90.40;;;;;;5117655;28;19907;-50
2023/01/06 06:10:18;;;;;;;;;;;18.20;90.40;;;;;;5099567;28;19993;-49
2023/01/06 06:12:44;;;;;;;;;;;18.20;90.40;;;;;;5117456;28;19908;-48
2023/01/06 06:15:09;;;;;;;;;;;18.20;90.40;;;;;;5117414;28;19911;-51
2023/01/06 06:17:35;;;;;;;;;;;18.20;90.40;;;;;;5117599;28;19907;-48
2023/01/06 06:20:00;;;;;;;;;;;18.20;90.40;;;;;;5099430;28;19912;-53
2023/01/06 06:22:26;;;;;;;;;;;18.30;90.40;;;;;;5117358;28;19908;-49
2023/01/06 06:24:51;;;;;;;;;;;18.30;90.40;;;;;;5117312;28;19951;-52
2023/01/06 06:27:17;;;;;;;;;;;18.40;90.30;;;;;;5117220;28;19961;-49
2023/01/06 06:29:42;;;;;;;;;;;18.50;90.10;;;;;;5117176;28;19974;-49
2023/01/06 06:32:07;;;;;;;;;;;18.60;90.00;;;;;;5117132;28;19908;-53
2023/01/06 06:34:33;;;;;;;;;;;18.60;89.90;;;;;;5116942;28;19908;-49
2023/01/06 06:36:58;;;;;;;;;;;18.70;90.00;;;;;;5117130;28;19995;-52
2023/01/06 06:39:24;;;;;;;;;;;18.60;90.00;;;;;;5116956;28;20375;-50
2023/01/06 06:41:49;;;;;;;;;;;18.60;90.00;;;;;;5117221;28;19911;-48
2023/01/06 06:44:15;;;;;;;;;;;18.60;90.10;;;;;;5116974;28;19908;-48
2023/01/06 06:46:40;;;;;;;;;;;18.50;90.10;;;;;;5117165;28;19914;-49
2023/01/06 06:49:06;;;;;;;;;;;18.40;90.20;;;;;;5116802;28;19907;-51
2023/01/06 06:51:31;;;;;;;;;;;18.40;90.20;;;;;;5116732;28;19912;-49
2023/01/06 06:53:57;;;;;;;;;;;18.40;90.30;;;;;;5116068;28;19908;-52
2023/01/06 06:56:22;;;;;;;;;;;18.40;90.30;;;;;;5116878;28;19908;-52
2023/01/06 06:58:47;;;;;;;;;;;18.30;90.30;;;;;;5116619;28;19916;-51
2023/01/06 07:01:14;;;;;;;;;;;18.30;90.30;;;;;;5117161;28;20002;-53
2023/01/06 07:03:40;;;;;;;;;;;18.30;90.40;;;;;;5116845;28;20334;-50
2023/01/06 07:06:06;;;;;;;;;;;18.30;90.40;;;;;;5116572;28;20323;-49
2023/01/06 07:08:32;;;;;;;;;;;18.20;90.40;;;;;;5117057;28;19919;-54
2023/01/06 07:10:57;;;;;;;;;;;18.20;90.40;;;;;;5116666;28;19908;-51
2023/01/06 07:13:23;;;;;;;;;;;18.20;90.50;;;;;;5116369;28;19965;-51
2023/01/06 07:15:48;;;;;;;;;;;18.20;90.50;;;;;;5116620;28;19912;-48
2023/01/06 07:18:14;;;;;;;;;;;18.10;90.40;;;;;;5116400;28;19912;-51
2023/01/06 07:20:39;;;;;;;;;;;18.10;90.40;;;;;;5116807;28;19912;-53
2023/01/06 07:23:05;;;;;;;;;;;18.10;90.40;;;;;;5116101;28;19908;-52
2023/01/06 07:25:30;;;;;;;;;;;18.10;90.50;;;;;;5116058;28;19907;-51
2023/01/06 07:27:57;;;;;;;;;;;18.10;90.50;;;;;;5115969;28;19907;-49
2023/01/06 07:30:23;;;;;;;;;;;18.10;90.50;;;;;;5115984;28;19908;-50
2023/01/06 07:32:49;;;;;;;;;;;18.10;90.50;;;;;;5116352;28;19908;-52
2023/01/06 07:35:14;;;;;;;;;;;18.10;90.50;;;;;;5115843;28;19919;-49
2023/01/06 07:37:40;;;;;;;;;;;18.00;90.60;;;;;;5116217;28;20370;-52
2023/01/06 07:40:05;;;;;;;;;;;18.00;90.60;;;;;;5115796;28;19911;-50
2023/01/06 07:42:31;;;;;;;;;;;17.90;90.60;;;;;;5116290;28;20045;-48
2023/01/06 07:44:56;;;;;;;;;;;17.90;90.60;;;;;;5115974;28;20397;-49
2023/01/06 07:47:22;;;;;;;;;;;17.90;90.70;;;;;;5115603;28;19994;-51
2023/01/06 07:49:47;;;;;;;;;;;17.90;90.70;;;;;;5115701;28;19915;-52
2023/01/06 07:52:13;;;;;;;;;;;17.90;90.80;;;;;;5115832;28;19908;-49
2023/01/06 07:54:38;;;;;;;;;;;17.90;90.80;;;;;;5116054;28;19908;-52
2023/01/06 07:57:04;;;;;;;;;;;17.80;90.80;;;;;;5115437;28;20316;-49
2023/01/06 07:59:29;;;;;;;;;;;17.80;90.80;;;;;;5115307;28;20001;-48
2023/01/06 08:01:55;;;;;;;;;;;17.80;90.80;;;;;;5115696;28;19912;-50
2023/01/06 08:04:20;;;;;;;;;;;17.80;90.80;;;;;;5115620;28;19915;-50
2023/01/06 08:06:46;;;;;;;;;;;17.70;90.90;;;;;;5115245;28;19961;-49
2023/01/06 08:09:11;;;;;;;;;;;17.70;90.90;;;;;;5115756;28;19912;-48
2023/01/06 08:11:37;;;;;;;;;;;17.70;91.00;;;;;;5115238;28;19915;-52
2023/01/06 08:14:02;;;;;;;;;;;17.70;91.00;;;;;;5115003;28;19914;-52
2023/01/06 08:16:28;;;;;;;;;;;17.60;91.00;;;;;;5114873;28;19930;-49
2023/01/06 08:18:53;;;;;;;;;;;17.60;91.00;;;;;;5114943;28;19912;-52
2023/01/06 08:21:18;;;;;;;;;;;17.60;91.10;;;;;;5114938;28;19961;-52
2023/01/06 08:23:44;;;;;;;;;;;17.50;91.20;;;;;;5096885;28;19914;-54
2023/01/06 08:26:12;;;;;;;;;;;17.50;91.20;;;;;;5115015;28;19914;-51
2023/01/06 08:28:41;;;;;;;;;;;17.50;91.30;;;;;;5115260;28;19977;-52
2023/01/06 08:31:08;;;;;;;;;;;17.50;91.30;;;;;;5114978;28;19914;-51
2023/01/06 08:33:33;;;;;;;;;;;17.50;91.30;;;;;;5115274;28;20006;-50
2023/01/06 08:35:59;;;;;;;;;;;17.50;91.40;;;;;;5114983;28;19982;-50
2023/01/06 08:38:25;;;;;;;;;;;17.40;91.30;;;;;;5115064;28;19972;-52
2023/01/06 08:40:51;;;;;;;;;;;17.40;91.30;;;;;;5114570;28;19912;-53
2023/01/06 08:43:16;;;;;;;;;;;17.40;91.40;;;;;;5114933;28;19908;-49
2023/01/06 08:45:42;;;;;;;;;;;17.40;91.40;;;;;;5114876;28;19955;-53
2023/01/06 08:48:07;;;;;;;;;;;17.40;91.40;;;;;;5114420;28;19908;-52
2023/01/06 08:50:33;;;;;;;;;;;17.40;91.30;;;;;;5115118;28;19908;-52
2023/01/06 08:52:58;;;;;;;;;;;17.40;91.40;;;;;;5114521;28;19915;-52
2023/01/06 08:55:24;;;;;;;;;;;17.40;91.40;;;;;;5114821;28;20369;-52
2023/01/06 08:57:49;;;;;;;;;;;17.40;91.50;;;;;;5114581;28;19916;-48
2023/01/06 09:00:15;;;;;;;;;;;17.40;91.50;;;;;;5114349;28;19972;-52
2023/01/06 09:02:40;;;;;;;;;;;17.40;91.50;;;;;;5114657;28;19907;-48
2023/01/06 09:05:06;;;;;;;;;;;17.30;91.50;;;;;;5114353;28;19908;-51
2023/01/06 09:07:31;;;;;;;;;;;17.40;91.50;;;;;;5114125;28;19912;-50
2023/01/06 09:09:57;;;;;;;;;;;17.40;91.50;;;;;;5114683;28;19960;-53
2023/01/06 09:12:22;;;;;;;;;;;17.50;91.50;;;;;;5114460;28;20006;-49
2023/01/06 09:14:48;;;;;;;;;;;17.50;91.50;;;;;;5114494;28;19908;-54
2023/01/06 09:17:13;;;;;;;;;;;17.50;91.50;;;;;;5114759;28;19912;-52
2023/01/06 09:19:39;;;;;;;;;;;17.60;91.40;;;;;;5118326;28;19912;-52
2023/01/06 09:22:06;;;;;;;;;;;17.80;91.40;;;;;;5118689;28;19919;-50
2023/01/06 09:24:31;;;;;;;;;;;18.00;91.20;;;;;;5118638;28;19908;-52
2023/01/06 09:26:57;;;;;;;;;;;18.20;90.80;;;;;;5118686;28;20002;-50
2023/01/06 09:29:22;;;;;;;;;;;18.50;90.40;;;;;;5118481;28;20355;-53
2023/01/06 09:31:48;;;;;;;;;;;18.90;89.80;;;;;;5118597;28;19907;-49
2023/01/06 09:34:13;;;;;;;;;;;19.20;88.90;;;;;;5118188;28;20053;-50
2023/01/06 09:36:38;;;;;;;;;;;19.30;88.30;;;;;;5100233;28;19920;-54
2023/01/06 09:39:04;;;;;;;;;;;19.30;88.20;;;;;;5118260;28;19912;-49
2023/01/06 09:41:33;;;;;;;;;;;19.30;88.10;;;;;;5118679;28;19918;-50
2023/01/06 09:44:03;;;;;;;;;;;19.30;88.30;;;;;;5118594;28;19968;-48
2023/01/06 09:46:31;;;;;;;;;;;19.20;88.40;;;;;;5118290;28;19908;-51
2023/01/06 09:49:00;;;;;;;;;;;19.10;88.80;;;;;;5118470;28;19958;-50
2023/01/06 09:51:27;;;;;;;;;;;19.00;88.90;;;;;;5117278;28;19935;-53
2023/01/06 09:53:58;;;;;;;;;;;19.00;89.10;;;;;;5096931;28;20367;-50
2023/01/06 09:56:24;;;;;;;;;;;18.90;89.40;;;;;;5097461;28;20274;-52
2023/01/06 09:59:02;;;;;;;;;;;18.80;89.30;;;;;;5097416;28;19919;-54
2023/01/06 10:01:31;;;;;;;;;;;18.70;89.70;;;;;;5097110;28;19912;-55
2023/01/06 10:03:58;;;;;;;;;;;18.60;90.00;;;;;;5095801;28;19947;-52
2023/01/06 10:06:32;;;;;;;;;;;18.60;90.20;;;;;;5100423;28;19913;-50
2023/01/06 10:09:00;;;;;;;;;;;18.50;90.20;;;;;;5092005;28;19908;-49
2023/01/06 10:11:26;;;;;;;;;;;18.50;90.40;;;;;;5096539;28;19980;-53
2023/01/06 10:14:05;;;;;;;;;;;18.40;90.40;;;;;;5095675;28;19912;-51
2023/01/06 10:16:38;;;;;;;;;;;18.30;90.50;;;;;;5095987;28;20185;-50
2023/01/06 10:19:16;;;;;;;;;;;18.30;90.50;;;;;;5095604;28;20016;-52
2023/01/06 10:22:00;;;;;;;;;;;18.20;90.60;;;;;;5096703;28;19912;-52
2023/01/06 10:24:25;;;;;;;;;;;18.20;90.70;;;;;;5097123;28;19959;-49
2023/01/06 10:26:56;;;;;;;;;;;18.20;90.70;;;;;;5096797;28;19912;-50
2023/01/06 10:29:23;;;;;;;;;;;18.10;90.80;;;;;;5078825;28;19919;-48
2023/01/06 10:31:50;;;;;;;;;;;18.10;90.80;;;;;;5078704;28;19908;-50
2023/01/06 10:34:20;;;;;;;;;;;18.10;90.80;;;;;;5097951;28;19920;-51
2023/01/06 10:36:47;;;;;;;;;;;18.00;90.80;;;;;;5096594;28;19927;-51
2023/01/06 10:39:15;;;;;;;;;;;18.10;90.90;;;;;;5096304;28;20435;-54
2023/01/06 10:42:54;;;;;;;;;;;18.20;90.80;;;;;;5102408;28;19916;-50
2023/01/06 10:44:44;;;;;;;;;;;18.30;90.80;;;;;;5091171;28;19999;-48
2023/01/06 10:47:29;;;;;;;;;;;18.40;90.60;;;;;;5097551;28;19984;-49
2023/01/06 10:49:55;;;;;;;;;;;18.60;90.40;;;;;;5096621;28;19908;-50
2023/01/06 10:52:21;;;;;;;;;;;18.80;90.30;;;;;;5096388;28;19958;-50
2023/01/06 10:54:48;;;;;;;;;;;18.80;90.00;;;;;;5096299;28;20365;-50
2023/01/06 10:57:19;;;;;;;;;;;18.90;89.90;;;;;;5075218;28;20381;-51
2023/01/06 11:00:05;;;;;;;;;;;18.90;89.40;;;;;;5094703;28;19916;-51
2023/01/06 11:02:31;;;;;;;;;;;18.90;88.80;;;;;;5106775;28;19966;-49
2023/01/06 11:04:59;;;;;;;;;;;18.80;88.90;;;;;;5096411;28;19908;-49
2023/01/06 11:07:25;;;;;;;;;;;18.70;89.00;;;;;;5095225;28;19951;-52
2023/01/06 11:09:50;;;;;;;;;;;18.70;89.20;;;;;;5078021;28;19966;-52
2023/01/06 11:12:16;;;;;;;;;;;18.60;89.40;;;;;;5095810;28;19904;-50
2023/01/06 11:14:42;;;;;;;;;;;18.50;89.70;;;;;;5100371;28;19912;-53
2023/01/06 11:17:14;;;;;;;;;;;18.50;89.80;;;;;;5106216;28;19912;-48
2023/01/06 11:19:44;;;;;;;;;;;18.40;89.40;;;;;;5113404;28;20015;-53
2023/01/06 11:22:28;;;;;;;;;;;18.40;90.10;;;;;;5096028;28;19923;-53
2023/01/06 11:24:53;;;;;;;;;;;18.30;90.10;;;;;;5093279;28;19948;-49
2023/01/06 11:27:19;;;;;;;;;;;18.30;90.20;;;;;;5094528;28;19958;-51
2023/01/06 11:29:44;;;;;;;;;;;18.30;90.30;;;;;;5106734;28;20409;-48
2023/01/06 11:32:15;;;;;;;;;;;18.20;90.30;;;;;;5099434;28;19957;-51
2023/01/06 11:34:48;;;;;;;;;;;18.20;90.30;;;;;;5079469;28;19959;-49
2023/01/06 11:37:13;;;;;;;;;;;18.20;90.30;;;;;;5094011;28;20296;-50
2023/01/06 11:39:40;;;;;;;;;;;18.20;90.30;;;;;;5075976;28;19923;-50
2023/01/06 11:42:11;;;;;;;;;;;18.30;90.30;;;;;;5094835;28;19926;-48
2023/01/06 11:44:38;;;;;;;;;;;18.30;90.20;;;;;;5093023;28;19916;-50
2023/01/06 11:47:07;;;;;;;;;;;18.50;90.10;;;;;;5115345;28;20338;-52
2023/01/06 11:49:34;;;;;;;;;;;18.60;89.90;;;;;;5104824;28;19947;-53
2023/01/06 11:52:01;;;;;;;;;;;18.70;89.40;;;;;;5089432;28;19912;-50
2023/01/06 11:54:30;;;;;;;;;;;18.80;89.00;;;;;;5105184;28;19920;-51
2023/01/06 11:57:16;;;;;;;;;;;18.90;88.80;;;;;;5109252;28;19911;-47
2023/01/06 11:59:51;;;;;;;;;;;18.90;88.60;;;;;;5094905;28;19988;-49
2023/01/06 12:02:21;;;;;;;;;;;18.90;88.70;;;;;;5109467;28;19919;-50
2023/01/06 12:04:50;;;;;;;;;;;18.90;88.70;;;;;;5105403;28;19977;-54
2023/01/06 12:07:27;;;;;;;;;;;18.80;88.80;;;;;;5093687;28;19987;-50
2023/01/06 12:09:54;;;;;;;;;;;18.70;88.90;;;;;;5114911;28;19911;-52
2023/01/06 12:12:22;;;;;;;;;;;18.70;89.10;;;;;;5112825;28;19915;-49
2023/01/06 12:14:47;;;;;;;;;;;18.60;89.30;;;;;;5110237;28;19977;-47
2023/01/06 12:17:33;;;;;;;;;;;18.50;89.50;;;;;;5094964;28;19912;-49
2023/01/06 12:20:16;;;;;;;;;;;18.50;89.70;;;;;;5092742;28;20014;-49
2023/01/06 12:22:44;;;;;;;;;;;18.50;89.80;;;;;;5112635;28;19916;-49
2023/01/06 12:25:14;;;;;;;;;;;18.40;90.00;;;;;;5109077;28;19919;-50
2023/01/06 12:27:42;;;;;;;;;;;18.40;90.00;;;;;;5115014;28;19908;-51
2023/01/06 12:30:15;;;;;;;;;;;18.30;90.00;;;;;;5107310;28;20010;-49
2023/01/06 12:32:42;;;;;;;;;;;18.40;90.10;;;;;;5103327;28;19911;-51
2023/01/06 12:35:12;;;;;;;;;;;18.40;90.00;;;;;;5111334;28;20014;-47
2023/01/06 12:37:39;;;;;;;;;;;18.40;90.00;;;;;;5077255;28;19912;-47
2023/01/06 12:40:14;;;;;;;;;;;18.40;90.00;;;;;;5093002;28;19955;-53
2023/01/06 12:42:51;;;;;;;;;;;18.50;90.00;;;;;;5093969;28;19912;-49
2023/01/06 12:45:20;;;;;;;;;;;18.50;89.80;;;;;;5095681;28;19912;-50
2023/01/06 12:47:45;;;;;;;;;;;18.60;89.60;;;;;;5093325;28;19912;-50
2023/01/06 12:50:20;;;;;;;;;;;18.60;89.40;;;;;;5093399;28;19934;-52
2023/01/06 12:52:50;;;;;;;;;;;18.60;89.30;;;;;;5093776;28;19908;-48
2023/01/06 12:55:27;;;;;;;;;;;18.60;89.40;;;;;;5100048;28;19911;-51
2023/01/06 12:57:58;;;;;;;;;;;18.50;89.40;;;;;;5111421;28;19923;-51
2023/01/06 13:00:41;;;;;;;;;;;18.50;89.50;;;;;;5076296;28;20275;-49
2023/01/06 13:03:16;;;;;;;;;;;18.50;89.50;;;;;;5107645;28;19923;-49
2023/01/06 13:05:48;;;;;;;;;;;18.40;90.00;;;;;;5107832;28;19916;-47
2023/01/06 13:08:19;;;;;;;;;;;18.40;89.70;;;;;;5110964;28;20304;-48
2023/01/06 13:10:47;;;;;;;;;;;18.30;89.70;;;;;;5100602;28;19912;-48
2023/01/06 13:13:23;;;;;;;;;;;18.30;89.90;;;;;;5092773;28;19960;-54
2023/01/06 13:15:48;;;;;;;;;;;18.30;90.00;;;;;;5074108;28;19999;-51
2023/01/06 13:18:19;;;;;;;;;;;18.20;90.00;;;;;;5074161;28;19995;-52
2023/01/06 13:20:50;;;;;;;;;;;18.20;90.00;;;;;;5096621;28;19929;-49
2023/01/06 13:23:18;;;;;;;;;;;18.20;90.10;;;;;;5093179;28;19908;-48
2023/01/06 13:25:50;;;;;;;;;;;18.20;90.10;;;;;;5091759;28;19955;-53
2023/01/06 13:28:31;;;;;;;;;;;18.20;90.10;;;;;;5093272;28;20377;-48
2023/01/06 13:31:06;;;;;;;;;;;18.20;90.10;;;;;;5102322;28;19957;-49
2023/01/06 13:33:40;;;;;;;;;;;18.10;90.10;;;;;;5107211;28;19992;-49
2023/01/06 13:36:08;;;;;;;;;;;18.10;90.10;;;;;;5108273;28;19927;-47
2023/01/06 13:38:54;;;;;;;;;;;18.10;90.10;;;;;;5113733;28;20377;-48
2023/01/06 13:41:23;;;;;;;;;;;18.10;90.30;;;;;;5092785;28;19970;-50
2023/01/06 13:43:49;;;;;;;;;;;18.10;90.10;;;;;;5104493;28;19912;-50
2023/01/06 13:46:16;;;;;;;;;;;18.10;90.10;;;;;;5110124;28;19919;-47
2023/01/06 13:48:45;;;;;;;;;;;18.00;90.10;;;;;;5092186;28;19916;-48
2023/01/06 13:51:11;;;;;;;;;;;18.00;89.60;;;;;;5093039;28;20704;-47
2023/01/06 13:53:38;;;;;;;;;;;18.00;90.10;;;;;;5113769;28;20005;-51
2023/01/06 13:56:13;;;;;;;;;;;18.00;90.10;;;;;;5103623;28;19919;-49
2023/01/06 13:58:39;;;;;;;;;;;18.00;90.20;;;;;;5092161;28;19920;-49
2023/01/06 14:01:09;;;;;;;;;;;18.00;90.10;;;;;;5093087;28;19912;-49
2023/01/06 14:03:36;;;;;;;;;;;18.00;90.20;;;;;;5093145;28;20263;-51
2023/01/06 14:06:02;;;;;;;;;;;18.00;90.20;;;;;;5095414;28;20011;-50
2023/01/06 14:08:30;;;;;;;;;;;18.00;90.20;;;;;;5096025;28;19912;-51
2023/01/06 14:10:59;;;;;;;;;;;17.90;90.20;;;;;;5096119;28;19912;-51
2023/01/06 14:13:27;;;;;;;;;;;17.90;90.20;;;;;;5076933;28;19969;-48
2023/01/06 14:15:56;;;;;;;;;;;17.90;90.20;;;;;;5092360;28;19912;-48
2023/01/06 14:18:28;;;;;;;;;;;17.90;90.20;;;;;;5077951;28;19916;-47
2023/01/06 14:21:05;;;;;;;;;;;17.80;90.20;;;;;;5078911;28;19912;-49
2023/01/06 14:23:31;;;;;;;;;;;17.80;90.20;;;;;;5071876;28;19918;-53